sensor_id;sensor_type;location;lat;lon;timestamp;P1;durP1;ratioP1;P2;durP2;ratioP2
56037;SDS011;41907;47.848;9.000;2024-03-02T00:02:04;36.47;;;20.40;;
56037;SDS011;41907;47.848;9.000;2024-03-02T00:04:31;36.70;;;20.77;;
56037;SDS011;41907;47.848;9.000;2024-03-02T00:06:56;38.92;;;22.20;;
56037;SDS011;41907;47.848;9.000;2024-03-02T00:09:22;36.10;;;20.67;;
56037;SDS011;41907;47.848;9.000;2024-03-02T00:11:47;33.90;;;19.08;;
56037;SDS011;41907;47.848;9.000;2024-03-02T00:14:12;33.30;;;18.45;;
56037;SDS011;41907;47.848;9.000;2024-03-02T00:16:38;33.45;;;19.15;;
56037;SDS011;41907;47.848;9.000;2024-03-02T00:19:03;28.10;;;17.20;;
56037;SDS011;41907;47.848;9.000;2024-03-02T00:21:32;26.17;;;16.52;;
56037;SDS011;41907;47.848;9.000;2024-03-02T00:23:58;30.23;;;17.70;;
56037;SDS011;41907;47.848;9.000;2024-03-02T00:26:25;26.98;;;16.58;;
56037;SDS011;41907;47.848;9.000;2024-03-02T00:28:50;25.77;;;16.17;;
56037;SDS011;41907;47.848;9.000;2024-03-02T00:31:21;25.15;;;16.35;;
56037;SDS011;41907;47.848;9.000;2024-03-02T00:33:48;26.48;;;16.35;;
56037;SDS011;41907;47.848;9.000;2024-03-02T00:36:14;23.95;;;15.35;;
56037;SDS011;41907;47.848;9.000;2024-03-02T00:41:12;24.42;;;14.60;;
56037;SDS011;41907;47.848;9.000;2024-03-02T00:46:12;26.00;;;16.67;;
56037;SDS011;41907;47.848;9.000;2024-03-02T00:48:54;29.15;;;15.60;;
56037;SDS011;41907;47.848;9.000;2024-03-02T00:51:24;25.00;;;15.68;;
56037;SDS011;41907;47.848;9.000;2024-03-02T00:53:51;25.58;;;16.17;;
56037;SDS011;41907;47.848;9.000;2024-03-02T00:56:20;24.35;;;15.27;;
56037;SDS011;41907;47.848;9.000;2024-03-02T00:58:45;26.48;;;15.80;;
56037;SDS011;41907;47.848;9.000;2024-03-02T01:01:11;21.67;;;15.13;;
56037;SDS011;41907;47.848;9.000;2024-03-02T01:03:37;25.27;;;15.82;;
56037;SDS011;41907;47.848;9.000;2024-03-02T01:06:02;23.77;;;15.15;;
56037;SDS011;41907;47.848;9.000;2024-03-02T01:08:28;24.10;;;14.98;;
56037;SDS011;41907;47.848;9.000;2024-03-02T01:10:53;19.20;;;13.23;;
56037;SDS011;41907;47.848;9.000;2024-03-02T01:13:19;22.17;;;14.00;;
56037;SDS011;41907;47.848;9.000;2024-03-02T01:15:46;23.83;;;14.82;;
56037;SDS011;41907;47.848;9.000;2024-03-02T01:18:11;23.42;;;14.88;;
56037;SDS011;41907;47.848;9.000;2024-03-02T01:20:37;24.15;;;15.82;;
56037;SDS011;41907;47.848;9.000;2024-03-02T01:23:02;24.83;;;14.63;;
56037;SDS011;41907;47.848;9.000;2024-03-02T01:25:28;24.08;;;14.60;;
56037;SDS011;41907;47.848;9.000;2024-03-02T01:27:53;26.00;;;15.02;;
56037;SDS011;41907;47.848;9.000;2024-03-02T01:30:18;25.35;;;14.85;;
56037;SDS011;41907;47.848;9.000;2024-03-02T01:32:44;24.45;;;15.00;;
56037;SDS011;41907;47.848;9.000;2024-03-02T01:35:09;23.40;;;15.15;;
56037;SDS011;41907;47.848;9.000;2024-03-02T01:37:34;19.67;;;13.73;;
56037;SDS011;41907;47.848;9.000;2024-03-02T01:40:00;21.80;;;13.27;;
56037;SDS011;41907;47.848;9.000;2024-03-02T01:42:25;20.83;;;13.05;;
56037;SDS011;41907;47.848;9.000;2024-03-02T01:44:50;23.17;;;14.23;;
56037;SDS011;41907;47.848;9.000;2024-03-02T01:47:16;24.27;;;14.40;;
56037;SDS011;41907;47.848;9.000;2024-03-02T01:49:41;26.15;;;15.00;;
56037;SDS011;41907;47.848;9.000;2024-03-02T01:52:07;24.65;;;14.95;;
56037;SDS011;41907;47.848;9.000;2024-03-02T01:54:32;26.17;;;15.75;;
56037;SDS011;41907;47.848;9.000;2024-03-02T01:56:58;24.73;;;15.65;;
56037;SDS011;41907;47.848;9.000;2024-03-02T01:59:24;23.88;;;14.57;;
56037;SDS011;41907;47.848;9.000;2024-03-02T02:01:50;24.80;;;14.85;;
56037;SDS011;41907;47.848;9.000;2024-03-02T02:04:15;24.42;;;14.25;;
56037;SDS011;41907;47.848;9.000;2024-03-02T02:06:41;24.98;;;14.98;;
56037;SDS011;41907;47.848;9.000;2024-03-02T02:09:06;28.70;;;15.60;;
56037;SDS011;41907;47.848;9.000;2024-03-02T02:11:33;29.67;;;17.60;;
56037;SDS011;41907;47.848;9.000;2024-03-02T02:13:59;31.63;;;18.83;;
56037;SDS011;41907;47.848;9.000;2024-03-02T02:16:24;27.92;;;15.50;;
56037;SDS011;41907;47.848;9.000;2024-03-02T02:18:50;33.15;;;17.63;;
56037;SDS011;41907;47.848;9.000;2024-03-02T02:21:15;40.60;;;20.20;;
56037;SDS011;41907;47.848;9.000;2024-03-02T02:23:40;41.95;;;21.17;;
56037;SDS011;41907;47.848;9.000;2024-03-02T02:26:11;41.00;;;21.08;;
56037;SDS011;41907;47.848;9.000;2024-03-02T02:28:36;42.45;;;21.65;;
56037;SDS011;41907;47.848;9.000;2024-03-02T02:31:01;41.67;;;21.58;;
56037;SDS011;41907;47.848;9.000;2024-03-02T02:33:27;50.97;;;21.00;;
56037;SDS011;41907;47.848;9.000;2024-03-02T02:35:53;52.40;;;21.40;;
56037;SDS011;41907;47.848;9.000;2024-03-02T02:38:19;63.63;;;21.05;;
56037;SDS011;41907;47.848;9.000;2024-03-02T02:40:45;43.75;;;20.48;;
56037;SDS011;41907;47.848;9.000;2024-03-02T02:43:10;33.22;;;19.88;;
56037;SDS011;41907;47.848;9.000;2024-03-02T02:45:35;42.67;;;19.52;;
56037;SDS011;41907;47.848;9.000;2024-03-02T02:48:01;48.20;;;19.55;;
56037;SDS011;41907;47.848;9.000;2024-03-02T02:50:27;30.00;;;16.65;;
56037;SDS011;41907;47.848;9.000;2024-03-02T02:52:53;29.40;;;17.15;;
56037;SDS011;41907;47.848;9.000;2024-03-02T02:55:18;29.45;;;17.58;;
56037;SDS011;41907;47.848;9.000;2024-03-02T02:57:44;29.38;;;17.33;;
56037;SDS011;41907;47.848;9.000;2024-03-02T03:00:11;25.90;;;15.52;;
56037;SDS011;41907;47.848;9.000;2024-03-02T03:02:44;30.55;;;16.38;;
56037;SDS011;41907;47.848;9.000;2024-03-02T03:05:13;47.08;;;15.65;;
56037;SDS011;41907;47.848;9.000;2024-03-02T03:07:39;27.85;;;15.65;;
56037;SDS011;41907;47.848;9.000;2024-03-02T03:10:05;42.17;;;15.95;;
56037;SDS011;41907;47.848;9.000;2024-03-02T03:12:31;35.38;;;16.20;;
56037;SDS011;41907;47.848;9.000;2024-03-02T03:14:58;48.45;;;16.17;;
56037;SDS011;41907;47.848;9.000;2024-03-02T03:17:23;25.35;;;15.60;;
56037;SDS011;41907;47.848;9.000;2024-03-02T03:19:49;39.95;;;17.15;;
56037;SDS011;41907;47.848;9.000;2024-03-02T03:22:15;33.97;;;15.63;;
56037;SDS011;41907;47.848;9.000;2024-03-02T03:24:41;42.03;;;16.75;;
56037;SDS011;41907;47.848;9.000;2024-03-02T03:27:06;39.10;;;15.95;;
56037;SDS011;41907;47.848;9.000;2024-03-02T03:29:32;27.38;;;16.17;;
56037;SDS011;41907;47.848;9.000;2024-03-02T03:31:57;39.60;;;16.73;;
56037;SDS011;41907;47.848;9.000;2024-03-02T03:34:22;46.75;;;16.92;;
56037;SDS011;41907;47.848;9.000;2024-03-02T03:36:47;63.40;;;19.17;;
56037;SDS011;41907;47.848;9.000;2024-03-02T03:39:13;73.07;;;18.70;;
56037;SDS011;41907;47.848;9.000;2024-03-02T03:41:40;56.90;;;20.08;;
56037;SDS011;41907;47.848;9.000;2024-03-02T03:44:05;87.85;;;21.27;;
56037;SDS011;41907;47.848;9.000;2024-03-02T03:46:30;78.50;;;23.30;;
56037;SDS011;41907;47.848;9.000;2024-03-02T03:48:56;98.00;;;23.63;;
56037;SDS011;41907;47.848;9.000;2024-03-02T03:51:21;84.10;;;24.17;;
56037;SDS011;41907;47.848;9.000;2024-03-02T03:53:47;78.50;;;24.05;;
56037;SDS011;41907;47.848;9.000;2024-03-02T03:56:13;77.63;;;24.38;;
56037;SDS011;41907;47.848;9.000;2024-03-02T03:58:39;88.32;;;23.88;;
56037;SDS011;41907;47.848;9.000;2024-03-02T04:01:04;49.33;;;22.02;;
56037;SDS011;41907;47.848;9.000;2024-03-02T04:03:29;64.55;;;22.60;;
56037;SDS011;41907;47.848;9.000;2024-03-02T04:05:55;79.30;;;24.17;;
56037;SDS011;41907;47.848;9.000;2024-03-02T04:08:21;87.15;;;23.38;;
56037;SDS011;41907;47.848;9.000;2024-03-02T04:10:46;83.93;;;23.55;;
56037;SDS011;41907;47.848;9.000;2024-03-02T04:13:11;60.75;;;21.05;;
56037;SDS011;41907;47.848;9.000;2024-03-02T04:15:37;61.90;;;20.25;;
56037;SDS011;41907;47.848;9.000;2024-03-02T04:18:02;62.30;;;22.15;;
56037;SDS011;41907;47.848;9.000;2024-03-02T04:20:28;75.85;;;21.67;;
56037;SDS011;41907;47.848;9.000;2024-03-02T04:22:53;61.42;;;20.58;;
56037;SDS011;41907;47.848;9.000;2024-03-02T04:25:18;73.55;;;20.60;;
56037;SDS011;41907;47.848;9.000;2024-03-02T04:27:44;99.72;;;22.40;;
56037;SDS011;41907;47.848;9.000;2024-03-02T04:30:10;69.97;;;20.27;;
56037;SDS011;41907;47.848;9.000;2024-03-02T04:32:36;48.63;;;20.40;;
56037;SDS011;41907;47.848;9.000;2024-03-02T04:35:01;42.20;;;20.45;;
56037;SDS011;41907;47.848;9.000;2024-03-02T04:37:27;41.45;;;20.50;;
56037;SDS011;41907;47.848;9.000;2024-03-02T04:39:52;47.85;;;19.98;;
56037;SDS011;41907;47.848;9.000;2024-03-02T04:42:17;87.82;;;20.10;;
56037;SDS011;41907;47.848;9.000;2024-03-02T04:44:43;121.20;;;22.35;;
56037;SDS011;41907;47.848;9.000;2024-03-02T04:47:08;41.90;;;19.25;;
56037;SDS011;41907;47.848;9.000;2024-03-02T04:49:34;165.70;;;25.88;;
56037;SDS011;41907;47.848;9.000;2024-03-02T04:51:59;104.82;;;23.98;;
56037;SDS011;41907;47.848;9.000;2024-03-02T04:54:24;162.52;;;26.23;;
56037;SDS011;41907;47.848;9.000;2024-03-02T04:56:50;113.10;;;22.75;;
56037;SDS011;41907;47.848;9.000;2024-03-02T04:59:16;52.20;;;22.23;;
56037;SDS011;41907;47.848;9.000;2024-03-02T05:01:42;213.40;;;26.65;;
56037;SDS011;41907;47.848;9.000;2024-03-02T05:04:08;149.88;;;27.10;;
56037;SDS011;41907;47.848;9.000;2024-03-02T05:06:33;89.13;;;24.00;;
56037;SDS011;41907;47.848;9.000;2024-03-02T05:08:59;101.93;;;24.30;;
56037;SDS011;41907;47.848;9.000;2024-03-02T05:11:24;102.82;;;26.08;;
56037;SDS011;41907;47.848;9.000;2024-03-02T05:14:01;179.65;;;27.75;;
56037;SDS011;41907;47.848;9.000;2024-03-02T05:16:27;264.38;;;31.95;;
56037;SDS011;41907;47.848;9.000;2024-03-02T05:18:52;125.47;;;27.02;;
56037;SDS011;41907;47.848;9.000;2024-03-02T05:21:18;92.53;;;25.85;;
56037;SDS011;41907;47.848;9.000;2024-03-02T05:23:43;203.40;;;28.02;;
56037;SDS011;41907;47.848;9.000;2024-03-02T05:26:09;168.23;;;27.02;;
56037;SDS011;41907;47.848;9.000;2024-03-02T05:28:37;166.90;;;26.63;;
56037;SDS011;41907;47.848;9.000;2024-03-02T05:31:03;59.15;;;22.52;;
56037;SDS011;41907;47.848;9.000;2024-03-02T05:33:28;185.63;;;26.83;;
56037;SDS011;41907;47.848;9.000;2024-03-02T05:35:56;147.48;;;25.17;;
56037;SDS011;41907;47.848;9.000;2024-03-02T05:38:21;198.00;;;27.55;;
56037;SDS011;41907;47.848;9.000;2024-03-02T05:40:47;49.92;;;22.90;;
56037;SDS011;41907;47.848;9.000;2024-03-02T05:43:12;81.78;;;23.92;;
56037;SDS011;41907;47.848;9.000;2024-03-02T05:45:38;66.68;;;21.20;;
56037;SDS011;41907;47.848;9.000;2024-03-02T05:48:04;94.18;;;22.55;;
56037;SDS011;41907;47.848;9.000;2024-03-02T05:50:31;90.38;;;22.15;;
56037;SDS011;41907;47.848;9.000;2024-03-02T05:52:56;65.85;;;21.58;;
56037;SDS011;41907;47.848;9.000;2024-03-02T05:55:22;41.10;;;21.45;;
56037;SDS011;41907;47.848;9.000;2024-03-02T05:57:47;67.10;;;21.45;;
56037;SDS011;41907;47.848;9.000;2024-03-02T06:00:24;84.75;;;21.30;;
56037;SDS011;41907;47.848;9.000;2024-03-02T06:02:49;68.47;;;20.67;;
56037;SDS011;41907;47.848;9.000;2024-03-02T06:05:15;62.15;;;21.00;;
56037;SDS011;41907;47.848;9.000;2024-03-02T06:07:43;38.58;;;20.67;;
56037;SDS011;41907;47.848;9.000;2024-03-02T06:10:09;41.20;;;20.33;;
56037;SDS011;41907;47.848;9.000;2024-03-02T06:12:34;39.53;;;20.52;;
56037;SDS011;41907;47.848;9.000;2024-03-02T06:15:00;37.20;;;20.38;;
56037;SDS011;41907;47.848;9.000;2024-03-02T06:17:25;40.53;;;22.23;;
56037;SDS011;41907;47.848;9.000;2024-03-02T06:19:50;35.92;;;20.50;;
56037;SDS011;41907;47.848;9.000;2024-03-02T06:22:16;31.77;;;19.20;;
56037;SDS011;41907;47.848;9.000;2024-03-02T06:24:41;32.95;;;18.83;;
56037;SDS011;41907;47.848;9.000;2024-03-02T06:27:07;51.13;;;18.92;;
56037;SDS011;41907;47.848;9.000;2024-03-02T06:29:32;30.70;;;17.48;;
56037;SDS011;41907;47.848;9.000;2024-03-02T06:31:58;30.48;;;17.52;;
56037;SDS011;41907;47.848;9.000;2024-03-02T06:34:24;29.63;;;18.25;;
56037;SDS011;41907;47.848;9.000;2024-03-02T06:36:49;35.45;;;17.98;;
56037;SDS011;41907;47.848;9.000;2024-03-02T06:39:15;56.85;;;19.02;;
56037;SDS011;41907;47.848;9.000;2024-03-02T06:41:40;61.72;;;18.95;;
56037;SDS011;41907;47.848;9.000;2024-03-02T06:44:05;51.40;;;18.83;;
56037;SDS011;41907;47.848;9.000;2024-03-02T06:46:31;41.08;;;19.58;;
56037;SDS011;41907;47.848;9.000;2024-03-02T06:48:57;37.97;;;18.95;;
56037;SDS011;41907;47.848;9.000;2024-03-02T06:51:22;43.08;;;18.38;;
56037;SDS011;41907;47.848;9.000;2024-03-02T06:53:48;44.17;;;19.40;;
56037;SDS011;41907;47.848;9.000;2024-03-02T06:56:13;41.58;;;17.98;;
56037;SDS011;41907;47.848;9.000;2024-03-02T06:58:40;40.58;;;19.65;;
56037;SDS011;41907;47.848;9.000;2024-03-02T07:01:05;41.50;;;18.90;;
56037;SDS011;41907;47.848;9.000;2024-03-02T07:03:30;50.95;;;20.08;;
56037;SDS011;41907;47.848;9.000;2024-03-02T07:05:56;61.70;;;20.13;;
56037;SDS011;41907;47.848;9.000;2024-03-02T07:08:22;46.90;;;21.65;;
56037;SDS011;41907;47.848;9.000;2024-03-02T07:10:47;41.20;;;21.20;;
56037;SDS011;41907;47.848;9.000;2024-03-02T07:13:12;35.10;;;18.65;;
56037;SDS011;41907;47.848;9.000;2024-03-02T07:15:38;69.70;;;19.50;;
56037;SDS011;41907;47.848;9.000;2024-03-02T07:18:15;79.57;;;19.10;;
56037;SDS011;41907;47.848;9.000;2024-03-02T07:20:41;29.23;;;17.52;;
56037;SDS011;41907;47.848;9.000;2024-03-02T07:23:06;109.35;;;19.15;;
56037;SDS011;41907;47.848;9.000;2024-03-02T07:25:31;85.35;;;18.70;;
56037;SDS011;41907;47.848;9.000;2024-03-02T07:27:57;136.45;;;20.48;;
56037;SDS011;41907;47.848;9.000;2024-03-02T07:30:22;124.30;;;20.13;;
56037;SDS011;41907;47.848;9.000;2024-03-02T07:32:49;46.67;;;17.85;;
56037;SDS011;41907;47.848;9.000;2024-03-02T07:35:15;90.60;;;19.02;;
56037;SDS011;41907;47.848;9.000;2024-03-02T07:37:41;132.98;;;21.17;;
56037;SDS011;41907;47.848;9.000;2024-03-02T07:40:07;85.72;;;19.60;;
56037;SDS011;41907;47.848;9.000;2024-03-02T07:42:39;119.82;;;21.35;;
56037;SDS011;41907;47.848;9.000;2024-03-02T07:45:05;129.75;;;21.08;;
56037;SDS011;41907;47.848;9.000;2024-03-02T07:47:31;50.08;;;18.27;;
56037;SDS011;41907;47.848;9.000;2024-03-02T07:49:58;101.93;;;20.73;;
56037;SDS011;41907;47.848;9.000;2024-03-02T07:52:23;92.53;;;20.00;;
56037;SDS011;41907;47.848;9.000;2024-03-02T07:54:48;57.65;;;18.42;;
56037;SDS011;41907;47.848;9.000;2024-03-02T07:57:14;42.28;;;16.17;;
56037;SDS011;41907;47.848;9.000;2024-03-02T07:59:39;26.58;;;15.52;;
56037;SDS011;41907;47.848;9.000;2024-03-02T08:02:04;32.38;;;15.20;;
56037;SDS011;41907;47.848;9.000;2024-03-02T08:04:30;31.70;;;16.02;;
56037;SDS011;41907;47.848;9.000;2024-03-02T08:06:55;27.73;;;16.35;;
56037;SDS011;41907;47.848;9.000;2024-03-02T08:09:21;39.72;;;17.60;;
56037;SDS011;41907;47.848;9.000;2024-03-02T08:11:46;27.52;;;15.80;;
56037;SDS011;41907;47.848;9.000;2024-03-02T08:14:12;28.60;;;15.13;;
56037;SDS011;41907;47.848;9.000;2024-03-02T08:16:37;20.98;;;13.32;;
56037;SDS011;41907;47.848;9.000;2024-03-02T08:19:03;31.63;;;15.35;;
56037;SDS011;41907;47.848;9.000;2024-03-02T08:21:28;27.48;;;15.75;;
56037;SDS011;41907;47.848;9.000;2024-03-02T08:23:55;35.55;;;14.13;;
56037;SDS011;41907;47.848;9.000;2024-03-02T08:26:22;22.30;;;13.77;;
56037;SDS011;41907;47.848;9.000;2024-03-02T08:28:47;22.52;;;14.05;;
56037;SDS011;41907;47.848;9.000;2024-03-02T08:31:13;42.45;;;13.93;;
56037;SDS011;41907;47.848;9.000;2024-03-02T08:33:38;21.98;;;13.98;;
56037;SDS011;41907;47.848;9.000;2024-03-02T08:36:03;20.15;;;13.00;;
56037;SDS011;41907;47.848;9.000;2024-03-02T08:38:29;19.55;;;12.93;;
56037;SDS011;41907;47.848;9.000;2024-03-02T08:40:55;17.92;;;12.52;;
56037;SDS011;41907;47.848;9.000;2024-03-02T08:43:20;18.48;;;12.25;;
56037;SDS011;41907;47.848;9.000;2024-03-02T08:45:47;15.73;;;11.30;;
56037;SDS011;41907;47.848;9.000;2024-03-02T08:48:13;16.38;;;11.45;;
56037;SDS011;41907;47.848;9.000;2024-03-02T08:50:38;14.45;;;9.63;;
56037;SDS011;41907;47.848;9.000;2024-03-02T08:53:03;18.33;;;11.68;;
56037;SDS011;41907;47.848;9.000;2024-03-02T08:55:29;17.15;;;11.10;;
56037;SDS011;41907;47.848;9.000;2024-03-02T08:57:55;14.70;;;10.73;;
56037;SDS011;41907;47.848;9.000;2024-03-02T09:00:20;19.08;;;11.80;;
56037;SDS011;41907;47.848;9.000;2024-03-02T09:02:46;16.65;;;11.50;;
56037;SDS011;41907;47.848;9.000;2024-03-02T09:05:12;16.83;;;11.82;;
56037;SDS011;41907;47.848;9.000;2024-03-02T09:07:37;13.52;;;10.18;;
56037;SDS011;41907;47.848;9.000;2024-03-02T09:10:03;13.70;;;9.18;;
56037;SDS011;41907;47.848;9.000;2024-03-02T09:12:32;15.05;;;9.73;;
56037;SDS011;41907;47.848;9.000;2024-03-02T09:14:58;17.85;;;10.43;;
56037;SDS011;41907;47.848;9.000;2024-03-02T09:17:25;17.60;;;11.02;;
56037;SDS011;41907;47.848;9.000;2024-03-02T09:19:50;19.15;;;11.70;;
56037;SDS011;41907;47.848;9.000;2024-03-02T09:22:18;17.13;;;10.68;;
56037;SDS011;41907;47.848;9.000;2024-03-02T09:24:43;15.88;;;11.10;;
56037;SDS011;41907;47.848;9.000;2024-03-02T09:27:09;17.33;;;11.55;;
56037;SDS011;41907;47.848;9.000;2024-03-02T09:29:34;14.27;;;10.77;;
56037;SDS011;41907;47.848;9.000;2024-03-02T09:31:59;13.63;;;10.63;;
56037;SDS011;41907;47.848;9.000;2024-03-02T09:34:25;12.80;;;9.68;;
56037;SDS011;41907;47.848;9.000;2024-03-02T09:36:51;13.40;;;9.13;;
56037;SDS011;41907;47.848;9.000;2024-03-02T09:39:17;12.43;;;9.38;;
56037;SDS011;41907;47.848;9.000;2024-03-02T09:41:43;14.10;;;10.43;;
56037;SDS011;41907;47.848;9.000;2024-03-02T09:44:09;12.65;;;10.15;;
56037;SDS011;41907;47.848;9.000;2024-03-02T09:46:35;13.52;;;10.20;;
56037;SDS011;41907;47.848;9.000;2024-03-02T09:49:01;13.18;;;10.20;;
56037;SDS011;41907;47.848;9.000;2024-03-02T09:51:27;14.18;;;10.63;;
56037;SDS011;41907;47.848;9.000;2024-03-02T09:53:52;15.40;;;11.23;;
56037;SDS011;41907;47.848;9.000;2024-03-02T09:56:20;14.55;;;10.85;;
56037;SDS011;41907;47.848;9.000;2024-03-02T09:58:46;16.65;;;11.55;;
56037;SDS011;41907;47.848;9.000;2024-03-02T10:01:12;19.55;;;13.45;;
56037;SDS011;41907;47.848;9.000;2024-03-02T10:03:37;21.10;;;15.13;;
56037;SDS011;41907;47.848;9.000;2024-03-02T10:06:18;23.75;;;19.45;;
56037;SDS011;41907;47.848;9.000;2024-03-02T10:08:43;22.13;;;16.52;;
56037;SDS011;41907;47.848;9.000;2024-03-02T10:11:09;17.70;;;12.73;;
56037;SDS011;41907;47.848;9.000;2024-03-02T10:13:34;14.70;;;12.43;;
56037;SDS011;41907;47.848;9.000;2024-03-02T10:15:59;14.20;;;11.65;;
56037;SDS011;41907;47.848;9.000;2024-03-02T10:18:36;15.70;;;12.13;;
56037;SDS011;41907;47.848;9.000;2024-03-02T10:21:14;16.23;;;12.07;;
56037;SDS011;41907;47.848;9.000;2024-03-02T10:23:40;15.15;;;12.68;;
56037;SDS011;41907;47.848;9.000;2024-03-02T10:26:16;12.95;;;11.40;;
56037;SDS011;41907;47.848;9.000;2024-03-02T10:28:46;11.60;;;10.30;;
56037;SDS011;41907;47.848;9.000;2024-03-02T10:31:17;12.93;;;10.98;;
56037;SDS011;41907;47.848;9.000;2024-03-02T10:33:42;13.25;;;10.70;;
56037;SDS011;41907;47.848;9.000;2024-03-02T10:36:08;13.32;;;10.13;;
56037;SDS011;41907;47.848;9.000;2024-03-02T10:38:33;13.73;;;10.48;;
56037;SDS011;41907;47.848;9.000;2024-03-02T10:40:59;10.02;;;7.93;;
56037;SDS011;41907;47.848;9.000;2024-03-02T10:43:25;9.85;;;7.80;;
56037;SDS011;41907;47.848;9.000;2024-03-02T10:45:51;8.35;;;6.75;;
56037;SDS011;41907;47.848;9.000;2024-03-02T10:48:17;7.05;;;6.38;;
56037;SDS011;41907;47.848;9.000;2024-03-02T10:50:43;7.78;;;6.57;;
56037;SDS011;41907;47.848;9.000;2024-03-02T10:53:08;6.72;;;6.13;;
56037;SDS011;41907;47.848;9.000;2024-03-02T10:55:33;7.05;;;6.35;;
56037;SDS011;41907;47.848;9.000;2024-03-02T10:57:59;6.40;;;5.80;;
56037;SDS011;41907;47.848;9.000;2024-03-02T11:00:28;7.88;;;5.93;;
56037;SDS011;41907;47.848;9.000;2024-03-02T11:03:04;6.63;;;6.03;;
56037;SDS011;41907;47.848;9.000;2024-03-02T11:05:36;6.35;;;5.75;;
56037;SDS011;41907;47.848;9.000;2024-03-02T11:08:06;7.90;;;5.75;;
56037;SDS011;41907;47.848;9.000;2024-03-02T11:10:51;5.70;;;5.20;;
56037;SDS011;41907;47.848;9.000;2024-03-02T11:13:24;5.38;;;4.88;;
56037;SDS011;41907;47.848;9.000;2024-03-02T11:15:55;5.40;;;4.93;;
56037;SDS011;41907;47.848;9.000;2024-03-02T11:18:28;7.57;;;6.87;;
56037;SDS011;41907;47.848;9.000;2024-03-02T11:20:54;6.57;;;5.97;;
56037;SDS011;41907;47.848;9.000;2024-03-02T11:23:20;8.20;;;7.40;;
56037;SDS011;41907;47.848;9.000;2024-03-02T11:26:19;6.15;;;5.55;;
56037;SDS011;41907;47.848;9.000;2024-03-02T11:28:49;6.88;;;6.28;;
56037;SDS011;41907;47.848;9.000;2024-03-02T11:31:14;9.27;;;7.53;;
56037;SDS011;41907;47.848;9.000;2024-03-02T11:33:39;8.52;;;7.38;;
56037;SDS011;41907;47.848;9.000;2024-03-02T11:36:08;6.93;;;6.22;;
56037;SDS011;41907;47.848;9.000;2024-03-02T11:38:34;11.43;;;8.63;;
56037;SDS011;41907;47.848;9.000;2024-03-02T11:41:01;17.95;;;13.93;;
56037;SDS011;41907;47.848;9.000;2024-03-02T11:43:28;16.27;;;13.18;;
56037;SDS011;41907;47.848;9.000;2024-03-02T11:46:01;7.82;;;7.03;;
56037;SDS011;41907;47.848;9.000;2024-03-02T11:48:31;10.10;;;7.22;;
56037;SDS011;41907;47.848;9.000;2024-03-02T11:50:58;7.13;;;6.43;;
56037;SDS011;41907;47.848;9.000;2024-03-02T11:53:24;8.02;;;6.88;;
56037;SDS011;41907;47.848;9.000;2024-03-02T11:55:53;6.82;;;6.18;;
56037;SDS011;41907;47.848;9.000;2024-03-02T11:58:20;6.80;;;5.90;;
56037;SDS011;41907;47.848;9.000;2024-03-02T12:00:55;6.72;;;5.70;;
56037;SDS011;41907;47.848;9.000;2024-03-02T12:03:22;10.10;;;6.60;;
56037;SDS011;41907;47.848;9.000;2024-03-02T12:05:48;10.98;;;7.72;;
56037;SDS011;41907;47.848;9.000;2024-03-02T12:08:15;8.90;;;6.60;;
56037;SDS011;41907;47.848;9.000;2024-03-02T12:10:40;10.00;;;6.97;;
56037;SDS011;41907;47.848;9.000;2024-03-02T12:13:06;6.45;;;5.60;;
56037;SDS011;41907;47.848;9.000;2024-03-02T12:15:36;17.00;;;13.23;;
56037;SDS011;41907;47.848;9.000;2024-03-02T12:18:02;6.57;;;5.88;;
56037;SDS011;41907;47.848;9.000;2024-03-02T12:20:29;5.50;;;5.00;;
56037;SDS011;41907;47.848;9.000;2024-03-02T12:23:00;6.93;;;5.40;;
56037;SDS011;41907;47.848;9.000;2024-03-02T12:25:27;6.82;;;5.15;;
56037;SDS011;41907;47.848;9.000;2024-03-02T12:27:56;7.28;;;5.53;;
56037;SDS011;41907;47.848;9.000;2024-03-02T12:30:24;6.35;;;4.45;;
56037;SDS011;41907;47.848;9.000;2024-03-02T12:32:54;4.53;;;3.50;;
56037;SDS011;41907;47.848;9.000;2024-03-02T12:35:19;3.40;;;3.10;;
56037;SDS011;41907;47.848;9.000;2024-03-02T12:37:49;3.42;;;2.80;;
56037;SDS011;41907;47.848;9.000;2024-03-02T12:40:16;2.00;;;1.67;;
56037;SDS011;41907;47.848;9.000;2024-03-02T12:42:43;1.42;;;1.30;;
56037;SDS011;41907;47.848;9.000;2024-03-02T12:45:09;1.42;;;1.25;;
56037;SDS011;41907;47.848;9.000;2024-03-02T12:47:35;1.95;;;1.60;;
56037;SDS011;41907;47.848;9.000;2024-03-02T12:50:01;1.55;;;1.40;;
56037;SDS011;41907;47.848;9.000;2024-03-02T13:02:18;2.45;;;2.20;;
56037;SDS011;41907;47.848;9.000;2024-03-02T13:04:44;3.17;;;1.95;;
56037;SDS011;41907;47.848;9.000;2024-03-02T13:07:10;2.90;;;2.60;;
56037;SDS011;41907;47.848;9.000;2024-03-02T13:09:38;2.72;;;2.35;;
56037;SDS011;41907;47.848;9.000;2024-03-02T13:12:04;3.03;;;2.33;;
56037;SDS011;41907;47.848;9.000;2024-03-02T13:14:32;2.95;;;1.98;;
56037;SDS011;41907;47.848;9.000;2024-03-02T13:16:58;2.53;;;1.55;;
56037;SDS011;41907;47.848;9.000;2024-03-02T13:19:25;1.98;;;1.77;;
56037;SDS011;41907;47.848;9.000;2024-03-02T13:21:50;2.25;;;1.90;;
56037;SDS011;41907;47.848;9.000;2024-03-02T13:24:16;1.75;;;1.55;;
56037;SDS011;41907;47.848;9.000;2024-03-02T13:26:41;2.70;;;2.15;;
56037;SDS011;41907;47.848;9.000;2024-03-02T13:29:07;1.33;;;1.23;;
56037;SDS011;41907;47.848;9.000;2024-03-02T13:31:32;2.45;;;1.77;;
56037;SDS011;41907;47.848;9.000;2024-03-02T13:33:58;2.40;;;2.00;;
56037;SDS011;41907;47.848;9.000;2024-03-02T13:36:23;2.28;;;1.92;;
56037;SDS011;41907;47.848;9.000;2024-03-02T13:38:49;2.58;;;1.70;;
56037;SDS011;41907;47.848;9.000;2024-03-02T13:41:14;2.13;;;1.90;;
56037;SDS011;41907;47.848;9.000;2024-03-02T13:43:40;2.45;;;2.03;;
56037;SDS011;41907;47.848;9.000;2024-03-02T13:46:05;3.33;;;2.00;;
56037;SDS011;41907;47.848;9.000;2024-03-02T13:48:31;2.28;;;2.08;;
56037;SDS011;41907;47.848;9.000;2024-03-02T13:50:57;1.42;;;1.33;;
56037;SDS011;41907;47.848;9.000;2024-03-02T13:53:22;1.40;;;1.30;;
56037;SDS011;41907;47.848;9.000;2024-03-02T13:55:48;2.55;;;1.23;;
56037;SDS011;41907;47.848;9.000;2024-03-02T13:58:13;2.35;;;1.20;;
56037;SDS011;41907;47.848;9.000;2024-03-02T14:00:39;1.30;;;1.15;;
56037;SDS011;41907;47.848;9.000;2024-03-02T14:03:07;2.63;;;1.20;;
56037;SDS011;41907;47.848;9.000;2024-03-02T14:05:33;2.78;;;1.45;;
56037;SDS011;41907;47.848;9.000;2024-03-02T14:07:59;1.60;;;1.50;;
56037;SDS011;41907;47.848;9.000;2024-03-02T14:10:27;1.95;;;1.75;;
56037;SDS011;41907;47.848;9.000;2024-03-02T14:12:53;2.30;;;2.03;;
56037;SDS011;41907;47.848;9.000;2024-03-02T14:15:20;1.98;;;1.80;;
56037;SDS011;41907;47.848;9.000;2024-03-02T14:17:45;2.35;;;1.70;;
56037;SDS011;41907;47.848;9.000;2024-03-02T14:20:11;2.22;;;2.03;;
56037;SDS011;41907;47.848;9.000;2024-03-02T14:22:38;3.78;;;2.53;;
56037;SDS011;41907;47.848;9.000;2024-03-02T14:25:03;4.25;;;3.38;;
56037;SDS011;41907;47.848;9.000;2024-03-02T14:27:29;5.90;;;2.70;;
56037;SDS011;41907;47.848;9.000;2024-03-02T14:29:55;5.05;;;2.47;;
56037;SDS011;41907;47.848;9.000;2024-03-02T14:32:20;4.68;;;2.53;;
56037;SDS011;41907;47.848;9.000;2024-03-02T14:34:45;3.58;;;2.78;;
56037;SDS011;41907;47.848;9.000;2024-03-02T14:37:12;6.90;;;3.10;;
56037;SDS011;41907;47.848;9.000;2024-03-02T14:39:38;2.38;;;2.03;;